createdAt,value
2017-03-02T00:00:01.386Z,48.93
2017-03-02T00:01:12.023Z,48.64
2017-03-02T00:02:21.849Z,48.85
2017-03-02T00:03:31.158Z,48.57
2017-03-02T00:04:40.907Z,48.74
2017-03-02T00:05:50.665Z,49.15
2017-03-02T00:07:01.289Z,48.54
2017-03-02T00:08:11.993Z,48.57
2017-03-02T00:09:22.200Z,48.85
2017-03-02T00:10:31.548Z,49.02
2017-03-02T00:11:42.623Z,49.05
2017-03-02T00:12:52.378Z,49.05
2017-03-02T00:14:02.665Z,49.33
2017-03-02T00:15:12.868Z,49.05
2017-03-02T00:16:23.539Z,49.52
2017-03-02T00:17:33.283Z,49.52
2017-03-02T00:18:43.072Z,49.12
2017-03-02T00:19:53.301Z,49.41
2017-03-02T00:21:03.482Z,49.02
2017-03-02T00:22:13.669Z,49.31
2017-03-02T00:23:23.426Z,49.31
2017-03-02T00:24:33.185Z,49.41
2017-03-02T00:25:43.874Z,49.31
2017-03-02T00:26:54.064Z,49.72
2017-03-02T00:28:03.842Z,49.02
2017-03-02T00:29:14.020Z,49.79
2017-03-02T00:30:24.212Z,49.5
2017-03-02T00:31:34.452Z,49.79
2017-03-02T00:32:44.214Z,49.62
2017-03-02T00:33:53.976Z,49.41
2017-03-02T00:35:04.159Z,49.79
2017-03-02T00:36:14.352Z,49.5
2017-03-02T00:37:25.019Z,49.69
2017-03-02T00:38:35.211Z,49.6
2017-03-02T00:39:45.392Z,49.79
2017-03-02T00:40:55.598Z,49.69
2017-03-02T00:42:04.912Z,49.69
2017-03-02T00:43:15.143Z,49.6
2017-03-02T00:44:25.780Z,49.69
2017-03-02T00:45:35.547Z,49.69
2017-03-02T00:46:45.761Z,49.69
2017-03-02T00:47:55.072Z,49.69
2017-03-02T00:49:47.963Z,49.6
2017-03-02T00:51:30.643Z,49.88
2017-03-02T00:52:41.196Z,49.5
2017-03-02T00:53:52.165Z,49.69
2017-03-02T00:55:02.795Z,49.79
2017-03-02T00:56:13.454Z,49.6
2017-03-02T00:57:23.689Z,50.27
2017-03-02T00:58:33.884Z,50.37
2017-03-02T00:59:43.644Z,50.27
2017-03-02T01:00:54.969Z,50.27
2017-03-02T01:02:04.727Z,50.37
2017-03-02T01:03:14.475Z,50.08
2017-03-02T01:04:25.533Z,50.08
2017-03-02T01:05:35.283Z,50.08
2017-03-02T01:06:45.582Z,50.17
2017-03-02T01:07:55.784Z,49.98
2017-03-02T01:09:06.431Z,49.88
2017-03-02T01:10:16.220Z,49.79
2017-03-02T01:11:25.991Z,49.98
2017-03-02T01:12:36.664Z,49.98
2017-03-02T01:13:46.859Z,49.88
2017-03-02T01:14:56.189Z,49.79
2017-03-02T01:16:05.516Z,49.6
2017-03-02T01:17:15.273Z,49.6
2017-03-02T01:18:25.956Z,49.79
2017-03-02T01:19:36.144Z,50.17
2017-03-02T01:20:46.387Z,49.69
2017-03-02T01:21:56.147Z,49.98
2017-03-02T01:23:06.337Z,49.79
2017-03-02T01:24:15.693Z,49.79
2017-03-02T01:25:26.762Z,50.27
2017-03-02T01:26:37.415Z,49.98
2017-03-02T01:27:47.598Z,49.88
2017-03-02T01:28:58.215Z,50.17
2017-03-02T01:30:08.232Z,50.27
2017-03-02T01:31:18.414Z,49.88
2017-03-02T01:32:28.169Z,49.79
2017-03-02T01:33:38.813Z,49.98
2017-03-02T01:34:48.144Z,50.37
2017-03-02T01:35:58.809Z,50.08
2017-03-02T01:37:09.002Z,50.17
2017-03-02T01:38:19.217Z,49.98
2017-03-02T01:39:29.418Z,50.15
2017-03-02T01:40:39.187Z,50.17
2017-03-02T01:41:49.853Z,50.17
2017-03-02T01:42:59.605Z,50.17
2017-03-02T01:44:09.798Z,49.86
2017-03-02T01:45:19.992Z,50.34
2017-03-02T01:46:30.637Z,49.79
2017-03-02T01:47:40.910Z,50.05
2017-03-02T01:48:50.648Z,49.86
2017-03-02T01:50:00.395Z,49.76
2017-03-02T01:51:10.603Z,50.24
2017-03-02T01:52:20.802Z,50.24
2017-03-02T01:53:32.075Z,50.05
2017-03-02T01:54:43.157Z,50.24
2017-03-02T01:55:54.213Z,50.15
2017-03-02T01:57:03.971Z,49.96
2017-03-02T01:58:14.160Z,50.43
2017-03-02T01:59:24.947Z,50.34
2017-03-02T02:00:34.706Z,50.63
2017-03-02T02:01:44.917Z,50.43
2017-03-02T02:02:54.225Z,50.63
2017-03-02T02:04:04.862Z,50.34
2017-03-02T02:05:15.121Z,51.01
2017-03-02T02:06:24.486Z,50.82
2017-03-02T02:07:35.110Z,50.82
2017-03-02T02:08:45.735Z,50.82
2017-03-02T02:09:55.497Z,50.63
2017-03-02T02:11:05.314Z,50.82
2017-03-02T02:12:15.954Z,50.82
2017-03-02T02:13:26.582Z,50.92
2017-03-02T02:14:36.331Z,50.73
2017-03-02T02:15:46.084Z,50.82
2017-03-02T02:16:55.871Z,50.92
2017-03-02T02:18:06.506Z,51.01
2017-03-02T02:19:16.266Z,51.3
2017-03-02T02:20:26.911Z,51.2
2017-03-02T02:21:36.718Z,51.2
2017-03-02T02:22:46.522Z,51.2
2017-03-02T02:23:57.164Z,51.2
2017-03-02T02:25:06.513Z,51.1
2017-03-02T02:26:15.846Z,50.92
2017-03-02T02:27:26.067Z,51.2
2017-03-02T02:28:35.634Z,51.2
2017-03-02T02:29:45.386Z,50.82
2017-03-02T02:30:55.580Z,50.73
2017-03-02T02:32:05.345Z,51.01
2017-03-02T02:33:14.650Z,50.92
2017-03-02T02:34:24.483Z,50.92
2017-03-02T02:35:33.819Z,50.82
2017-03-02T02:36:44.914Z,50.73
2017-03-02T02:37:55.103Z,50.82
2017-03-02T02:39:04.857Z,51.2
2017-03-02T02:40:15.097Z,51.3
2017-03-02T02:41:25.309Z,51.2
2017-03-02T02:42:35.511Z,51.1
2017-03-02T02:43:45.709Z,51.2
2017-03-02T02:44:55.906Z,51.3
2017-03-02T02:46:05.284Z,51.2
2017-03-02T02:47:15.045Z,51.2
2017-03-02T02:48:25.251Z,50.82
2017-03-02T02:49:34.999Z,50.73
2017-03-02T02:50:44.319Z,51.01
2017-03-02T02:51:55.002Z,50.92
2017-03-02T02:53:04.363Z,50.73
2017-03-02T02:54:14.176Z,50.73
2017-03-02T02:55:23.490Z,51.01
2017-03-02T02:56:33.683Z,50.92
2017-03-02T02:57:43.482Z,51.18
2017-03-02T02:58:53.269Z,50.63
2017-03-02T03:00:03.033Z,51.01
2017-03-02T03:01:12.807Z,50.89
2017-03-02T03:02:22.553Z,50.79
2017-03-02T03:03:32.813Z,50.6
2017-03-02T03:04:42.162Z,51.3
2017-03-02T03:05:52.372Z,51.2
2017-03-02T03:07:01.697Z,51.1
2017-03-02T03:08:11.007Z,51.3
2017-03-02T03:09:21.258Z,51.46
2017-03-02T03:10:31.449Z,51.49
2017-03-02T03:11:40.807Z,51.87
2017-03-02T03:12:50.592Z,51.59
2017-03-02T03:14:00.356Z,51.4
2017-03-02T03:15:10.626Z,51.49
2017-03-02T03:16:19.947Z,52.07
2017-03-02T03:17:30.578Z,51.97
2017-03-02T03:18:40.340Z,51.78
2017-03-02T03:19:50.086Z,51.97
2017-03-02T03:20:59.438Z,52.07
2017-03-02T03:22:09.669Z,51.97
2017-03-02T03:23:19.422Z,51.97
2017-03-02T03:24:29.604Z,52.04
2017-03-02T03:25:39.393Z,51.97
2017-03-02T03:26:49.286Z,51.97
2017-03-02T03:27:59.492Z,52.16
2017-03-02T03:29:09.685Z,52.14
2017-03-02T03:30:18.999Z,52.52
2017-03-02T03:31:28.372Z,52.42
2017-03-02T03:32:38.196Z,52.42
2017-03-02T03:33:48.393Z,52.42
2017-03-02T03:34:57.717Z,52.52
2017-03-02T03:36:07.491Z,52.23
2017-03-02T03:37:16.816Z,52.16
2017-03-02T03:38:26.233Z,52.36
2017-03-02T03:39:36.011Z,52.26
2017-03-02T03:40:46.200Z,52.14
2017-03-02T03:41:55.537Z,52.14
2017-03-02T03:43:05.286Z,52.33
2017-03-02T03:44:14.660Z,52.42
2017-03-02T03:45:24.429Z,52.23
2017-03-02T03:46:34.189Z,52.23
2017-03-02T03:47:43.959Z,52.42
2017-03-02T03:48:53.724Z,52.23
2017-03-02T03:50:03.542Z,52.33
2017-03-02T03:51:13.762Z,52.42
2017-03-02T03:52:23.987Z,52.52
2017-03-02T03:53:34.182Z,52.23
2017-03-02T03:54:43.927Z,52.42
2017-03-02T03:55:53.776Z,52.33
2017-03-02T03:57:03.549Z,52.33
2017-03-02T03:58:12.864Z,52.14
2017-03-02T03:59:22.638Z,52.33
2017-03-02T04:00:32.389Z,52.62
2017-03-02T04:01:43.102Z,52.52
2017-03-02T04:02:52.874Z,52.52
2017-03-02T04:04:02.624Z,52.62
2017-03-02T04:05:13.245Z,52.52
2017-03-02T04:06:23.005Z,52.52
2017-03-02T04:07:32.818Z,52.62
2017-03-02T04:08:43.027Z,52.33
2017-03-02T04:09:53.260Z,52.23
2017-03-02T04:11:02.609Z,52.33
2017-03-02T04:12:12.807Z,52.04
2017-03-02T04:13:23.055Z,52.14
2017-03-02T04:14:32.835Z,52.52
2017-03-02T04:15:42.590Z,52.42
2017-03-02T04:16:52.769Z,52.52
2017-03-02T04:18:02.086Z,52.71
2017-03-02T04:19:11.470Z,52.62
2017-03-02T04:20:20.812Z,52.14
2017-03-02T04:21:30.998Z,52.52
2017-03-02T04:22:41.214Z,52.42
2017-03-02T04:23:50.985Z,52.62
2017-03-02T04:25:01.663Z,52.14
2017-03-02T04:26:11.898Z,52.52
2017-03-02T04:27:22.098Z,52.52
2017-03-02T04:28:31.844Z,52.42
2017-03-02T04:29:41.613Z,52.42
2017-03-02T04:30:51.413Z,52.62
2017-03-02T04:32:00.731Z,52.14
2017-03-02T04:33:10.077Z,52.04
2017-03-02T04:34:20.281Z,52.14
2017-03-02T04:35:29.615Z,52.23
2017-03-02T04:36:39.855Z,52.42
2017-03-02T04:37:49.639Z,52.42
2017-03-02T04:38:59.398Z,52.14
2017-03-02T04:40:08.721Z,52.23
2017-03-02T04:41:19.351Z,52.42
2017-03-02T04:42:29.172Z,52.33
2017-03-02T04:43:38.926Z,52.33
2017-03-02T04:44:49.123Z,52.33
2017-03-02T04:45:58.887Z,52.23
2017-03-02T04:47:09.090Z,52.23
2017-03-02T04:48:18.468Z,52.14
2017-03-02T04:49:28.680Z,52.23
2017-03-02T04:50:38.865Z,52.62
2017-03-02T04:51:48.615Z,52.52
2017-03-02T04:52:58.410Z,52.62
2017-03-02T04:54:08.652Z,52.62
2017-03-02T04:55:18.426Z,52.52
2017-03-02T04:56:27.768Z,52.62
2017-03-02T04:57:37.527Z,52.62
2017-03-02T04:58:47.282Z,52.71
2017-03-02T04:59:57.115Z,52.52
2017-03-02T05:01:06.877Z,52.62
2017-03-02T05:02:17.073Z,52.62
2017-03-02T05:03:27.275Z,52.23
2017-03-02T05:04:37.467Z,52.14
2017-03-02T05:05:48.153Z,52.4
2017-03-02T05:06:57.894Z,52.5
2017-03-02T05:08:07.651Z,52.42
2017-03-02T05:09:16.993Z,52.62
2017-03-02T05:10:26.762Z,52.5
2017-03-02T05:11:37.135Z,52.69
2017-03-02T05:12:47.352Z,52.5
2017-03-02T05:13:58.001Z,52.69
2017-03-02T05:15:07.329Z,52.69
2017-03-02T05:16:17.107Z,52.52
2017-03-02T05:17:27.341Z,52.52
2017-03-02T05:18:36.693Z,52.42
2017-03-02T05:19:46.902Z,52.33
2017-03-02T05:20:56.672Z,52.4
2017-03-02T05:22:06.425Z,52.52
2017-03-02T05:23:16.235Z,52.42
2017-03-02T05:24:25.992Z,52.23
2017-03-02T05:25:35.305Z,52.87
2017-03-02T05:26:45.073Z,53
2017-03-02T05:27:54.822Z,53.36
2017-03-02T05:29:05.156Z,53.16
2017-03-02T05:30:14.918Z,53.09
2017-03-02T05:31:24.271Z,53.26
2017-03-02T05:32:34.461Z,53.16
2017-03-02T05:33:43.798Z,52.97
2017-03-02T05:34:53.606Z,52.97
2017-03-02T05:36:03.803Z,53
2017-03-02T05:37:13.559Z,53.36
2017-03-02T05:38:24.182Z,52.59
2017-03-02T05:39:33.967Z,52.69
2017-03-02T05:40:43.793Z,52.5
2017-03-02T05:41:53.150Z,52.69
2017-03-02T05:43:02.907Z,52.69
2017-03-02T05:44:12.228Z,52.5
2017-03-02T05:45:21.997Z,52.3
2017-03-02T05:46:31.379Z,52.3
2017-03-02T05:47:40.716Z,52.5
2017-03-02T05:48:51.355Z,52.5
2017-03-02T05:50:02.000Z,52.78
2017-03-02T05:51:11.327Z,53.16
2017-03-02T05:52:21.141Z,53.16
2017-03-02T05:53:30.896Z,53.07
2017-03-02T05:54:41.091Z,53.16
2017-03-02T05:55:50.392Z,53.26
2017-03-02T05:56:59.734Z,52.97
2017-03-02T05:58:09.558Z,53.26
2017-03-02T05:59:18.899Z,52.97
2017-03-02T06:00:29.110Z,52.97
2017-03-02T06:01:38.442Z,52.97
2017-03-02T06:02:49.072Z,53.07
2017-03-02T06:03:58.444Z,53.26
2017-03-02T06:05:08.205Z,53.26
2017-03-02T06:06:17.535Z,52.97
2017-03-02T06:07:26.876Z,52.97
2017-03-02T06:08:36.657Z,52.97
2017-03-02T06:09:46.545Z,52.97
2017-03-02T06:10:56.282Z,53.07
2017-03-02T06:12:06.485Z,53.07
2017-03-02T06:13:16.263Z,52.87
2017-03-02T06:14:25.579Z,53.16
2017-03-02T06:15:35.412Z,52.97
2017-03-02T06:16:45.182Z,52.97
2017-03-02T06:17:54.975Z,52.97
2017-03-02T06:19:05.164Z,52.97
2017-03-02T06:20:14.489Z,52.87
2017-03-02T06:21:24.293Z,52.78
2017-03-02T06:22:34.484Z,52.78
2017-03-02T06:23:44.688Z,52.97
2017-03-02T06:24:54.890Z,53.16
2017-03-02T06:26:05.186Z,53.07
2017-03-02T06:27:14.979Z,52.97
2017-03-02T06:28:24.746Z,53.07
2017-03-02T06:29:34.515Z,53.07
2017-03-02T06:30:43.823Z,52.97
2017-03-02T06:31:54.456Z,53.16
2017-03-02T06:33:04.250Z,53.07
2017-03-02T06:34:13.579Z,53.07
2017-03-02T06:35:23.789Z,53.26
2017-03-02T06:36:33.991Z,53.07
2017-03-02T06:37:43.771Z,53.07
2017-03-02T06:38:53.145Z,53.26
2017-03-02T06:40:02.920Z,53.26
2017-03-02T06:41:13.130Z,52.69
2017-03-02T06:42:22.923Z,52.4
2017-03-02T06:43:33.149Z,53.07
2017-03-02T06:44:42.949Z,53.36
2017-03-02T06:45:53.585Z,53.16
2017-03-02T06:47:04.049Z,53.16
2017-03-02T06:48:13.370Z,53.16
2017-03-02T06:49:23.127Z,52.97
2017-03-02T06:50:32.958Z,53.26
2017-03-02T06:51:43.157Z,53.16
2017-03-02T06:52:52.913Z,52.87
2017-03-02T06:54:03.127Z,53.07
2017-03-02T06:55:12.876Z,52.97
2017-03-02T06:56:22.266Z,53.16
2017-03-02T06:57:32.040Z,53.16
2017-03-02T06:58:41.804Z,52.97
2017-03-02T06:59:51.145Z,52.97
2017-03-02T07:01:02.542Z,53.64
2017-03-02T07:02:11.914Z,53.16
2017-03-02T07:03:23.189Z,53.36
2017-03-02T07:04:32.961Z,53.26
2017-03-02T07:05:43.381Z,53.64
2017-03-02T07:06:53.588Z,53.16
2017-03-02T07:08:03.840Z,53.07
2017-03-02T07:09:14.499Z,52.97
2017-03-02T07:10:24.260Z,53.07
2017-03-02T07:11:34.011Z,53.16
2017-03-02T07:12:44.072Z,53.26
2017-03-02T07:13:55.535Z,53.16
2017-03-02T07:15:06.817Z,53.45
2017-03-02T07:16:17.465Z,53.07
2017-03-02T07:17:27.533Z,53.16
2017-03-02T07:18:38.288Z,53.26
2017-03-02T07:19:48.288Z,53.45
2017-03-02T07:21:01.689Z,53.07
2017-03-02T07:22:12.135Z,53.16
2017-03-02T07:23:23.604Z,52.97
2017-03-02T07:24:34.913Z,52.97
2017-03-02T07:25:44.841Z,53.07
2017-03-02T07:26:54.612Z,53.07
2017-03-02T07:28:03.961Z,53.36
2017-03-02T07:29:13.835Z,53.36
2017-03-02T07:30:23.785Z,52.3
2017-03-02T07:31:34.051Z,52.2
2017-03-02T07:32:43.382Z,52.3
2017-03-02T07:33:52.821Z,52.59
2017-03-02T07:35:02.684Z,52.01
2017-03-02T07:36:12.048Z,52.5
2017-03-02T07:37:21.702Z,52.5
2017-03-02T07:38:31.887Z,52.01
2017-03-02T07:39:41.208Z,51.92
2017-03-02T07:40:51.292Z,51.73
2017-03-02T07:42:01.062Z,51.92
2017-03-02T07:43:12.143Z,51.63
2017-03-02T07:44:22.935Z,51.44
2017-03-02T07:45:34.190Z,51.34
2017-03-02T07:46:46.986Z,51.15
2017-03-02T07:47:58.706Z,51.25
2017-03-02T07:49:08.953Z,51.08
2017-03-02T07:50:18.690Z,50.77
2017-03-02T07:51:28.650Z,50.77
2017-03-02T07:52:40.530Z,50.77
2017-03-02T07:53:52.041Z,50.79
2017-03-02T07:55:02.001Z,50.79
2017-03-02T07:56:12.388Z,50.99
2017-03-02T07:57:22.069Z,50.22
2017-03-02T07:58:32.246Z,50.32
2017-03-02T07:59:42.558Z,49.93
2017-03-02T08:00:55.493Z,49.74
2017-03-02T08:02:08.996Z,49.45
2017-03-02T08:03:20.836Z,49.07
2017-03-02T08:04:33.643Z,48.97
2017-03-02T08:05:47.788Z,48.49
2017-03-02T08:07:01.153Z,48.78
2017-03-02T08:08:13.270Z,48.4
2017-03-02T08:09:23.076Z,47.92
2017-03-02T08:10:32.864Z,48.21
2017-03-02T08:11:42.224Z,47.82
2017-03-02T08:12:51.969Z,47.63
2017-03-02T08:14:01.737Z,47.34
2017-03-02T08:15:11.970Z,47.44
2017-03-02T08:16:22.177Z,48.02
2017-03-02T08:17:31.558Z,49.84
2017-03-02T08:18:41.347Z,51.65
2017-03-02T08:19:51.671Z,53
2017-03-02T08:21:02.153Z,54.15
2017-03-02T08:22:11.885Z,54.37
2017-03-02T08:23:22.142Z,54.75
2017-03-02T08:24:32.645Z,55.04
2017-03-02T08:25:43.056Z,54.85
2017-03-02T08:26:54.475Z,54.75
2017-03-02T08:28:04.013Z,54.08
2017-03-02T08:29:14.312Z,53.5
2017-03-02T08:30:24.087Z,53.6
2017-03-02T08:31:34.283Z,53.22
2017-03-02T08:32:44.040Z,52.45
2017-03-02T08:33:54.678Z,52.55
2017-03-02T08:35:04.056Z,51.78
2017-03-02T08:36:13.841Z,51.59
2017-03-02T08:37:23.186Z,51.2
2017-03-02T08:38:33.679Z,51.01
2017-03-02T08:39:42.997Z,50.24
2017-03-02T08:40:52.558Z,50.73
2017-03-02T08:42:01.887Z,50.24
2017-03-02T08:43:11.880Z,50.05
2017-03-02T08:44:22.067Z,49.57
2017-03-02T08:45:33.445Z,49.38
2017-03-02T08:46:44.536Z,48.9
2017-03-02T08:47:54.953Z,49
2017-03-02T08:49:04.712Z,48.61
2017-03-02T08:50:15.559Z,48.13
2017-03-02T08:51:24.979Z,48.71
2017-03-02T08:52:34.777Z,48.33
2017-03-02T08:53:44.338Z,48.13
2017-03-02T08:54:54.096Z,48.52
2017-03-02T08:56:03.421Z,47.66
2017-03-02T08:57:13.187Z,47.75
2017-03-02T08:58:23.415Z,47.46
2017-03-02T08:59:32.981Z,46.98
2017-03-02T09:00:42.760Z,46.89
2017-03-02T09:01:52.738Z,47.08
2017-03-02T09:03:02.492Z,47.39
2017-03-02T09:04:14.013Z,46.98
2017-03-02T09:05:23.785Z,46.91
2017-03-02T09:06:33.674Z,46.72
2017-03-02T09:07:43.935Z,46.72
2017-03-02T09:08:53.702Z,46.91
2017-03-02T09:10:03.086Z,46.24
2017-03-02T09:11:13.055Z,46.14
2017-03-02T09:12:23.246Z,46.05
2017-03-02T09:13:32.563Z,46.14
2017-03-02T09:14:43.567Z,45.76
2017-03-02T09:15:54.285Z,45.76
2017-03-02T09:17:04.470Z,45.57
2017-03-02T09:18:14.767Z,45.47
2017-03-02T09:19:24.512Z,45.67
2017-03-02T09:20:34.562Z,45.57
2017-03-02T09:21:44.366Z,45.67
2017-03-02T09:22:54.347Z,45.18
2017-03-02T09:24:05.240Z,44.82
2017-03-02T09:25:15.453Z,45.09
2017-03-02T09:26:25.219Z,44.9
2017-03-02T09:27:35.464Z,45.01
2017-03-02T09:28:45.227Z,44.82
2017-03-02T09:29:56.066Z,44.7
2017-03-02T09:31:05.856Z,45.01
2017-03-02T09:32:15.190Z,45.01
2017-03-02T09:33:25.042Z,45.01
2017-03-02T09:34:35.774Z,44.92
2017-03-02T09:35:45.548Z,45.11
2017-03-02T09:36:55.553Z,45.01
2017-03-02T09:38:05.300Z,44.84
2017-03-02T09:39:14.672Z,45.32
2017-03-02T09:40:24.418Z,45.14
2017-03-02T09:41:34.612Z,45.32
2017-03-02T09:42:44.368Z,44.65
2017-03-02T09:43:54.114Z,44.84
2017-03-02T09:45:03.687Z,44.56
2017-03-02T09:46:13.080Z,44.68
2017-03-02T09:47:23.106Z,44.48
2017-03-02T09:48:33.126Z,44.56
2017-03-02T09:49:43.740Z,45.15
2017-03-02T09:50:53.109Z,45.04
2017-03-02T09:52:02.878Z,45.04
2017-03-02T09:53:13.987Z,45.04
2017-03-02T09:54:23.320Z,45.23
2017-03-02T09:55:33.929Z,45.14
2017-03-02T09:56:43.735Z,45.23
2017-03-02T09:57:53.059Z,45.52
2017-03-02T09:59:02.813Z,45.04
2017-03-02T10:00:13.427Z,44.94
2017-03-02T10:01:23.216Z,45.45
2017-03-02T10:02:33.471Z,45.14
2017-03-02T10:03:43.668Z,45.35
2017-03-02T10:04:53.408Z,45.06
2017-03-02T10:06:02.736Z,45.06
2017-03-02T10:07:12.061Z,45.06
2017-03-02T10:08:21.889Z,44.77
2017-03-02T10:09:31.191Z,44.87
2017-03-02T10:10:41.089Z,44.96
2017-03-02T10:11:51.298Z,45.06
2017-03-02T10:13:00.635Z,45.06
2017-03-02T10:14:10.904Z,45.15
2017-03-02T10:15:20.250Z,44.87
2017-03-02T10:16:30.458Z,45.18
2017-03-02T10:17:40.651Z,44.6
2017-03-02T10:18:52.149Z,44.99
2017-03-02T10:20:02.299Z,44.79
2017-03-02T10:21:12.400Z,44.41
2017-03-02T10:22:23.069Z,44.6
2017-03-02T10:23:32.405Z,44.7
2017-03-02T10:24:42.700Z,44.7
2017-03-02T10:25:53.869Z,44.7
2017-03-02T10:27:03.626Z,44.79
2017-03-02T10:28:13.370Z,44.7
2017-03-02T10:29:24.016Z,44.79
2017-03-02T10:30:34.230Z,44.79
2017-03-02T10:31:43.743Z,44.6
2017-03-02T10:32:53.498Z,44.12
2017-03-02T10:34:02.827Z,44.22
2017-03-02T10:35:13.357Z,44.31
2017-03-02T10:36:23.828Z,44.02
2017-03-02T10:37:33.629Z,44.53
2017-03-02T10:38:43.402Z,44.05
2017-03-02T10:39:52.955Z,44.43
2017-03-02T10:41:02.625Z,44.53
2017-03-02T10:42:12.974Z,44.43
2017-03-02T10:43:22.354Z,44.34
2017-03-02T10:44:32.124Z,44.34
2017-03-02T10:45:41.450Z,44.43
2017-03-02T10:46:50.959Z,44.43
2017-03-02T10:48:00.285Z,44.12
2017-03-02T10:49:09.885Z,44.12
2017-03-02T10:50:20.070Z,44.34
2017-03-02T10:51:29.822Z,44.22
2017-03-02T10:52:39.583Z,44.22
2017-03-02T10:53:50.214Z,44.51
2017-03-02T10:54:59.759Z,44.51
2017-03-02T10:56:09.079Z,44.51
2017-03-02T10:57:19.268Z,44.43
2017-03-02T10:58:29.990Z,44.05
2017-03-02T10:59:49.017Z,44.12
2017-03-02T11:01:10.198Z,44.05
2017-03-02T11:02:28.847Z,44.41
2017-03-02T11:03:46.246Z,44.6
2017-03-02T11:05:03.569Z,44.41
2017-03-02T11:06:18.425Z,44.31
2017-03-02T11:07:29.051Z,44.12
2017-03-02T11:08:40.556Z,43.95
2017-03-02T11:09:51.027Z,43.95
2017-03-02T11:11:01.304Z,44.02
2017-03-02T11:12:11.053Z,43.95
2017-03-02T11:13:20.366Z,43.76
2017-03-02T11:14:30.167Z,43.76
2017-03-02T11:15:39.933Z,43.95
2017-03-02T11:16:50.206Z,43.95
2017-03-02T11:18:01.269Z,44.22
2017-03-02T11:19:11.022Z,44.14
2017-03-02T11:20:21.225Z,44.31
2017-03-02T11:21:30.963Z,43.95
2017-03-02T11:22:40.779Z,43.57
2017-03-02T11:23:50.973Z,43.76
2017-03-02T11:25:00.737Z,43.57
2017-03-02T11:26:11.395Z,43.76
2017-03-02T11:27:21.596Z,43.57
2017-03-02T11:28:31.470Z,43.85
2017-03-02T11:29:41.894Z,43.76
2017-03-02T11:30:53.776Z,43.76
2017-03-02T11:32:04.970Z,43.76
2017-03-02T11:33:15.551Z,43.57
2017-03-02T11:34:26.815Z,43.66
2017-03-02T11:35:39.121Z,43.4
2017-03-02T11:36:49.254Z,43.4
2017-03-02T11:37:58.581Z,43.2
2017-03-02T11:39:09.641Z,42.91
2017-03-02T11:40:19.022Z,42.82
2017-03-02T11:41:29.215Z,43.01
2017-03-02T11:42:38.988Z,42.43
2017-03-02T11:43:48.304Z,43.01
2017-03-02T11:44:58.510Z,42.05
2017-03-02T11:46:08.780Z,41.97
2017-03-02T11:47:18.548Z,41.97
2017-03-02T11:48:28.506Z,42.16
2017-03-02T11:49:38.704Z,42.16
2017-03-02T11:50:48.015Z,42.46
2017-03-02T11:51:57.430Z,42.14
2017-03-02T11:53:07.307Z,42.63
2017-03-02T11:54:16.963Z,42.72
2017-03-02T11:55:26.810Z,42.53
2017-03-02T11:56:37.007Z,42.43
2017-03-02T11:57:47.243Z,42.91
2017-03-02T11:58:56.561Z,43.11
2017-03-02T12:00:06.175Z,43.11
2017-03-02T12:01:16.444Z,42.82
2017-03-02T12:02:25.787Z,43.11
2017-03-02T12:03:36.748Z,43.11
2017-03-02T12:04:48.119Z,42.91
2017-03-02T12:05:57.864Z,43.18
2017-03-02T12:07:07.187Z,43.28
2017-03-02T12:08:17.394Z,43.47
2017-03-02T12:09:27.084Z,43.59
2017-03-02T12:10:37.716Z,43.57
2017-03-02T12:11:47.468Z,43.66
2017-03-02T12:12:57.702Z,43.37
2017-03-02T12:14:07.477Z,43.76
2017-03-02T12:15:17.452Z,43.66
2017-03-02T12:16:27.646Z,43.76
2017-03-02T12:17:36.980Z,43.76
2017-03-02T12:18:47.176Z,43.95
2017-03-02T12:19:56.947Z,43.85
2017-03-02T12:21:07.291Z,43.64
2017-03-02T12:22:17.073Z,43.66
2017-03-02T12:23:26.414Z,43.57
2017-03-02T12:24:35.736Z,43.54
2017-03-02T12:25:45.948Z,43.26
2017-03-02T12:26:56.206Z,43.84
2017-03-02T12:28:05.522Z,43.93
2017-03-02T12:29:15.300Z,43.64
2017-03-02T12:30:25.507Z,43.74
2017-03-02T12:31:35.253Z,43.84
2017-03-02T12:32:45.066Z,43.93
2017-03-02T12:33:54.816Z,43.74
2017-03-02T12:35:04.148Z,43.93
2017-03-02T12:36:14.343Z,43.93
2017-03-02T12:37:23.676Z,44.22
2017-03-02T12:38:33.474Z,44.22
2017-03-02T12:39:43.243Z,44.22
2017-03-02T12:40:52.564Z,44.48
2017-03-02T12:42:01.887Z,44.58
2017-03-02T12:43:11.641Z,44.48
2017-03-02T12:44:21.890Z,44.38
2017-03-02T12:45:31.640Z,44.29
2017-03-02T12:46:41.409Z,44.29
2017-03-02T12:47:50.747Z,44.77
2017-03-02T12:49:00.972Z,44.77
2017-03-02T12:50:10.352Z,44.87
2017-03-02T12:51:20.982Z,44.68
2017-03-02T12:52:31.212Z,44.77
2017-03-02T12:53:40.524Z,44.58
2017-03-02T12:54:50.312Z,44.68
2017-03-02T12:56:00.582Z,44.48
2017-03-02T12:57:10.368Z,44.68
2017-03-02T12:58:21.029Z,44.77
2017-03-02T12:59:30.778Z,44.68
2017-03-02T13:00:40.087Z,44.77
2017-03-02T13:01:49.888Z,44.68
2017-03-02T13:02:59.628Z,44.38
2017-03-02T13:04:08.951Z,44.2
2017-03-02T13:05:19.140Z,44.38
2017-03-02T13:06:28.877Z,44.1
2017-03-02T13:07:38.257Z,44.38
2017-03-02T13:08:48.020Z,44.38
2017-03-02T13:09:58.244Z,44.48
2017-03-02T13:11:07.562Z,44.68
2017-03-02T13:12:17.754Z,44.38
2017-03-02T13:13:28.040Z,44.38
2017-03-02T13:14:37.786Z,44.38
2017-03-02T13:15:47.098Z,44
2017-03-02T13:16:56.932Z,44.1
2017-03-02T13:18:06.261Z,44.2
2017-03-02T13:19:16.075Z,43.91
2017-03-02T13:20:25.835Z,43.81
2017-03-02T13:21:35.589Z,43.71
2017-03-02T13:22:45.364Z,43.71
2017-03-02T13:23:54.699Z,43.81
2017-03-02T13:25:04.092Z,44.1
2017-03-02T13:26:13.420Z,43.81
2017-03-02T13:27:22.752Z,44
2017-03-02T13:28:33.395Z,43.62
2017-03-02T13:29:43.163Z,43.71
2017-03-02T13:30:52.956Z,43.71
2017-03-02T13:32:03.161Z,43.62
2017-03-02T13:33:13.362Z,43.81
2017-03-02T13:34:23.129Z,43.71
2017-03-02T13:35:32.887Z,43.71
2017-03-02T13:36:42.699Z,43.81
2017-03-02T13:37:52.920Z,43.62
2017-03-02T13:39:03.577Z,43.91
2017-03-02T13:40:12.926Z,43.91
2017-03-02T13:41:22.691Z,44.2
2017-03-02T13:42:32.076Z,44
2017-03-02T13:43:41.412Z,43.91
2017-03-02T13:44:51.187Z,44.1
2017-03-02T13:46:00.959Z,44.2
2017-03-02T13:47:11.156Z,44
2017-03-02T13:48:20.977Z,43.98
2017-03-02T13:49:30.726Z,44.08
2017-03-02T13:50:40.036Z,44.29
2017-03-02T13:51:49.362Z,44.46
2017-03-02T13:52:59.550Z,44.17
2017-03-02T13:54:09.815Z,44.37
2017-03-02T13:55:19.602Z,44.37
2017-03-02T13:56:29.378Z,44.37
2017-03-02T13:57:39.176Z,44.37
2017-03-02T13:58:48.493Z,44.37
2017-03-02T13:59:57.856Z,43.98
2017-03-02T14:01:07.194Z,44.17
2017-03-02T14:02:17.393Z,44.17
2017-03-02T14:03:26.708Z,44.08
2017-03-02T14:04:36.900Z,44.27
2017-03-02T14:05:46.272Z,43.98
2017-03-02T14:06:56.044Z,44.56
2017-03-02T14:08:05.794Z,44.56
2017-03-02T14:09:15.539Z,44.56
2017-03-02T14:10:25.297Z,44.75
2017-03-02T14:11:35.294Z,44.65
2017-03-02T14:12:44.615Z,44.56
2017-03-02T14:13:53.920Z,44.75
2017-03-02T14:15:03.248Z,44.56
2017-03-02T14:16:13.877Z,44.63
2017-03-02T14:17:24.143Z,45.11
2017-03-02T14:18:33.479Z,45.11
2017-03-02T14:19:44.114Z,45.11
2017-03-02T14:20:53.867Z,45.01
2017-03-02T14:22:04.072Z,45.01
2017-03-02T14:23:13.461Z,44.92
2017-03-02T14:24:23.717Z,44.82
2017-03-02T14:25:33.486Z,45.21
2017-03-02T14:26:43.685Z,45.21
2017-03-02T14:27:53.437Z,45.01
2017-03-02T14:29:03.699Z,45.68
2017-03-02T14:30:13.464Z,45.5
2017-03-02T14:31:22.792Z,45.5
2017-03-02T14:32:33.419Z,45.59
2017-03-02T14:33:43.660Z,45.68
2017-03-02T14:34:53.481Z,45.37
2017-03-02T14:36:03.707Z,45.5
2017-03-02T14:37:13.032Z,45.37
2017-03-02T14:38:22.349Z,45.59
2017-03-02T14:39:31.685Z,45.68
2017-03-02T14:40:41.495Z,45.78
2017-03-02T14:41:51.260Z,45.88
2017-03-02T14:43:01.453Z,45.86
2017-03-02T14:44:11.646Z,45.76
2017-03-02T14:45:21.423Z,46.14
2017-03-02T14:46:31.244Z,45.95
2017-03-02T14:47:40.994Z,46.24
2017-03-02T14:48:50.331Z,46.24
2017-03-02T14:50:00.529Z,46.43
2017-03-02T14:51:09.849Z,46.14
2017-03-02T14:52:20.079Z,46.24
2017-03-02T14:53:29.836Z,46.72
2017-03-02T14:54:39.581Z,46.91
2017-03-02T14:55:49.334Z,46.91
2017-03-02T14:56:59.099Z,46.43
2017-03-02T14:58:08.469Z,46.91
2017-03-02T14:59:18.658Z,46.62
2017-03-02T15:00:27.979Z,46.24
2017-03-02T15:01:37.296Z,46.34
2017-03-02T15:02:46.622Z,46.24
2017-03-02T15:03:56.463Z,46.34
2017-03-02T15:05:06.680Z,46.05
2017-03-02T15:06:16.021Z,46.05